sensor_id;sensor_type;location;lat;lon;timestamp;temperature;humidity
15013;DHT22;7603;49.432;11.418;2024-02-14T00:00:06;1.20;99.90
15013;DHT22;7603;49.432;11.418;2024-02-14T00:02:35;1.20;99.90
15013;DHT22;7603;49.432;11.418;2024-02-14T00:05:02;1.20;99.90
15013;DHT22;7603;49.432;11.418;2024-02-14T00:07:28;1.30;99.90
15013;DHT22;7603;49.432;11.418;2024-02-14T00:09:54;1.20;99.90
15013;DHT22;7603;49.432;11.418;2024-02-14T00:12:20;1.20;99.90
15013;DHT22;7603;49.432;11.418;2024-02-14T00:14:46;1.10;99.90
15013;DHT22;7603;49.432;11.418;2024-02-14T00:17:11;1.10;99.90
15013;DHT22;7603;49.432;11.418;2024-02-14T00:19:38;1.00;99.90
15013;DHT22;7603;49.432;11.418;2024-02-14T00:22:03;0.90;99.90
15013;DHT22;7603;49.432;11.418;2024-02-14T00:24:29;0.80;99.90
15013;DHT22;7603;49.432;11.418;2024-02-14T00:26:55;0.80;99.90
15013;DHT22;7603;49.432;11.418;2024-02-14T00:29:22;0.70;99.90
15013;DHT22;7603;49.432;11.418;2024-02-14T00:31:49;0.70;99.90
15013;DHT22;7603;49.432;11.418;2024-02-14T00:34:15;0.70;99.90
15013;DHT22;7603;49.432;11.418;2024-02-14T00:36:41;0.70;99.90
15013;DHT22;7603;49.432;11.418;2024-02-14T00:39:07;0.70;99.90
15013;DHT22;7603;49.432;11.418;2024-02-14T00:41:35;0.70;99.90
15013;DHT22;7603;49.432;11.418;2024-02-14T00:44:01;0.70;99.90
15013;DHT22;7603;49.432;11.418;2024-02-14T00:46:29;0.70;99.90
15013;DHT22;7603;49.432;11.418;2024-02-14T00:48:55;0.60;99.90
15013;DHT22;7603;49.432;11.418;2024-02-14T00:51:21;0.60;99.90
15013;DHT22;7603;49.432;11.418;2024-02-14T00:53:47;0.50;99.90
15013;DHT22;7603;49.432;11.418;2024-02-14T00:56:13;0.50;99.90
15013;DHT22;7603;49.432;11.418;2024-02-14T00:58:38;0.40;99.90
15013;DHT22;7603;49.432;11.418;2024-02-14T01:01:04;0.40;99.90
15013;DHT22;7603;49.432;11.418;2024-02-14T01:03:31;0.40;99.90
15013;DHT22;7603;49.432;11.418;2024-02-14T01:05:57;0.40;99.90
15013;DHT22;7603;49.432;11.418;2024-02-14T01:08:22;0.40;99.90
15013;DHT22;7603;49.432;11.418;2024-02-14T01:10:48;0.40;99.90
15013;DHT22;7603;49.432;11.418;2024-02-14T01:13:17;0.40;99.90
15013;DHT22;7603;49.432;11.418;2024-02-14T01:15:43;0.50;99.90
15013;DHT22;7603;49.432;11.418;2024-02-14T01:18:08;0.50;99.90
15013;DHT22;7603;49.432;11.418;2024-02-14T01:20:35;0.50;99.90
15013;DHT22;7603;49.432;11.418;2024-02-14T01:23:01;0.60;99.90
15013;DHT22;7603;49.432;11.418;2024-02-14T01:25:26;0.60;99.90
15013;DHT22;7603;49.432;11.418;2024-02-14T01:27:52;0.70;99.90
15013;DHT22;7603;49.432;11.418;2024-02-14T01:30:18;0.70;99.90
15013;DHT22;7603;49.432;11.418;2024-02-14T01:32:44;0.70;99.90
15013;DHT22;7603;49.432;11.418;2024-02-14T01:35:10;0.70;99.90
15013;DHT22;7603;49.432;11.418;2024-02-14T01:37:36;0.80;99.90
15013;DHT22;7603;49.432;11.418;2024-02-14T01:40:02;0.80;99.90
15013;DHT22;7603;49.432;11.418;2024-02-14T01:42:28;0.90;99.90
15013;DHT22;7603;49.432;11.418;2024-02-14T01:44:54;0.90;99.90
15013;DHT22;7603;49.432;11.418;2024-02-14T01:47:20;1.00;99.90
15013;DHT22;7603;49.432;11.418;2024-02-14T01:49:46;1.00;99.90
15013;DHT22;7603;49.432;11.418;2024-02-14T01:52:13;1.10;99.90
15013;DHT22;7603;49.432;11.418;2024-02-14T01:54:39;1.10;99.90
15013;DHT22;7603;49.432;11.418;2024-02-14T01:57:05;1.20;99.90
15013;DHT22;7603;49.432;11.418;2024-02-14T01:59:33;1.20;99.90
15013;DHT22;7603;49.432;11.418;2024-02-14T02:02:00;1.20;99.90
15013;DHT22;7603;49.432;11.418;2024-02-14T02:04:26;1.30;99.90
15013;DHT22;7603;49.432;11.418;2024-02-14T02:06:52;1.30;99.90
15013;DHT22;7603;49.432;11.418;2024-02-14T02:09:22;1.30;99.90
15013;DHT22;7603;49.432;11.418;2024-02-14T02:11:49;1.30;99.90
15013;DHT22;7603;49.432;11.418;2024-02-14T02:14:15;1.20;99.90
15013;DHT22;7603;49.432;11.418;2024-02-14T02:16:44;1.20;99.90
15013;DHT22;7603;49.432;11.418;2024-02-14T02:19:11;1.10;99.90
15013;DHT22;7603;49.432;11.418;2024-02-14T02:21:37;1.10;99.90
15013;DHT22;7603;49.432;11.418;2024-02-14T02:24:04;1.00;99.90
15013;DHT22;7603;49.432;11.418;2024-02-14T02:26:30;1.00;99.90
15013;DHT22;7603;49.432;11.418;2024-02-14T02:28:56;0.90;99.90
15013;DHT22;7603;49.432;11.418;2024-02-14T02:31:22;0.80;99.90
15013;DHT22;7603;49.432;11.418;2024-02-14T02:33:48;0.80;99.90
15013;DHT22;7603;49.432;11.418;2024-02-14T02:36:15;0.80;99.90
15013;DHT22;7603;49.432;11.418;2024-02-14T02:38:41;0.70;99.90
15013;DHT22;7603;49.432;11.418;2024-02-14T02:41:07;0.80;99.90
15013;DHT22;7603;49.432;11.418;2024-02-14T02:43:33;0.80;99.90
15013;DHT22;7603;49.432;11.418;2024-02-14T02:45:59;0.80;99.90
15013;DHT22;7603;49.432;11.418;2024-02-14T02:48:25;0.90;99.90
15013;DHT22;7603;49.432;11.418;2024-02-14T02:50:51;1.00;99.90
15013;DHT22;7603;49.432;11.418;2024-02-14T02:53:17;1.10;99.90
15013;DHT22;7603;49.432;11.418;2024-02-14T02:55:43;1.10;99.90
15013;DHT22;7603;49.432;11.418;2024-02-14T02:58:10;1.20;99.90
15013;DHT22;7603;49.432;11.418;2024-02-14T03:00:35;1.30;99.90
15013;DHT22;7603;49.432;11.418;2024-02-14T03:03:01;1.40;99.90
15013;DHT22;7603;49.432;11.418;2024-02-14T03:05:30;1.50;99.90
15013;DHT22;7603;49.432;11.418;2024-02-14T03:07:59;1.50;99.90
15013;DHT22;7603;49.432;11.418;2024-02-14T03:10:25;1.60;99.90
15013;DHT22;7603;49.432;11.418;2024-02-14T03:12:51;1.70;99.90
15013;DHT22;7603;49.432;11.418;2024-02-14T03:15:18;1.80;99.90
15013;DHT22;7603;49.432;11.418;2024-02-14T03:17:45;1.80;99.90
15013;DHT22;7603;49.432;11.418;2024-02-14T03:20:11;1.90;99.90
15013;DHT22;7603;49.432;11.418;2024-02-14T03:22:43;1.90;99.90
15013;DHT22;7603;49.432;11.418;2024-02-14T03:25:19;2.00;99.90
15013;DHT22;7603;49.432;11.418;2024-02-14T03:27:46;2.00;99.90
15013;DHT22;7603;49.432;11.418;2024-02-14T03:30:12;2.00;99.90
15013;DHT22;7603;49.432;11.418;2024-02-14T03:32:45;2.00;99.90
15013;DHT22;7603;49.432;11.418;2024-02-14T03:35:14;2.00;99.90
15013;DHT22;7603;49.432;11.418;2024-02-14T03:37:45;1.90;99.90
15013;DHT22;7603;49.432;11.418;2024-02-14T03:40:13;1.90;99.90
15013;DHT22;7603;49.432;11.418;2024-02-14T03:42:38;1.90;99.90
15013;DHT22;7603;49.432;11.418;2024-02-14T03:45:07;1.90;99.90
15013;DHT22;7603;49.432;11.418;2024-02-14T03:47:33;1.90;99.90
15013;DHT22;7603;49.432;11.418;2024-02-14T03:49:59;1.90;99.90
15013;DHT22;7603;49.432;11.418;2024-02-14T03:52:25;1.90;99.90
15013;DHT22;7603;49.432;11.418;2024-02-14T03:54:52;1.90;99.90
15013;DHT22;7603;49.432;11.418;2024-02-14T03:57:17;1.90;99.90
15013;DHT22;7603;49.432;11.418;2024-02-14T03:59:46;1.80;99.90
15013;DHT22;7603;49.432;11.418;2024-02-14T04:02:12;1.80;99.90
15013;DHT22;7603;49.432;11.418;2024-02-14T04:04:42;1.70;99.90
15013;DHT22;7603;49.432;11.418;2024-02-14T04:07:08;1.70;99.90
15013;DHT22;7603;49.432;11.418;2024-02-14T04:09:34;1.70;99.90
15013;DHT22;7603;49.432;11.418;2024-02-14T04:12:00;1.70;99.90
15013;DHT22;7603;49.432;11.418;2024-02-14T04:14:26;1.70;99.90
15013;DHT22;7603;49.432;11.418;2024-02-14T04:16:52;1.60;99.90
15013;DHT22;7603;49.432;11.418;2024-02-14T04:19:17;1.50;99.90
15013;DHT22;7603;49.432;11.418;2024-02-14T04:21:44;1.50;99.90
15013;DHT22;7603;49.432;11.418;2024-02-14T04:24:09;1.40;99.90
15013;DHT22;7603;49.432;11.418;2024-02-14T04:26:35;1.40;99.90
15013;DHT22;7603;49.432;11.418;2024-02-14T04:29:01;1.40;99.90
15013;DHT22;7603;49.432;11.418;2024-02-14T04:31:27;1.40;99.90
15013;DHT22;7603;49.432;11.418;2024-02-14T04:33:55;1.30;99.90
15013;DHT22;7603;49.432;11.418;2024-02-14T04:36:21;1.30;99.90
15013;DHT22;7603;49.432;11.418;2024-02-14T04:38:49;1.30;99.90
15013;DHT22;7603;49.432;11.418;2024-02-14T04:41:15;1.30;99.90
15013;DHT22;7603;49.432;11.418;2024-02-14T04:43:41;1.30;99.90
15013;DHT22;7603;49.432;11.418;2024-02-14T04:46:07;1.20;99.90
15013;DHT22;7603;49.432;11.418;2024-02-14T04:48:34;1.20;99.90
15013;DHT22;7603;49.432;11.418;2024-02-14T04:51:01;1.10;99.90
15013;DHT22;7603;49.432;11.418;2024-02-14T04:53:27;1.10;99.90
15013;DHT22;7603;49.432;11.418;2024-02-14T04:55:53;1.00;99.90
15013;DHT22;7603;49.432;11.418;2024-02-14T04:58:20;1.00;99.90
15013;DHT22;7603;49.432;11.418;2024-02-14T05:00:45;1.00;99.90
15013;DHT22;7603;49.432;11.418;2024-02-14T05:03:11;1.10;99.90
15013;DHT22;7603;49.432;11.418;2024-02-14T05:05:38;1.10;99.90
15013;DHT22;7603;49.432;11.418;2024-02-14T05:08:04;1.20;99.90
15013;DHT22;7603;49.432;11.418;2024-02-14T05:10:31;1.30;99.90
15013;DHT22;7603;49.432;11.418;2024-02-14T05:12:57;1.40;99.90
15013;DHT22;7603;49.432;11.418;2024-02-14T05:15:23;1.50;99.90
15013;DHT22;7603;49.432;11.418;2024-02-14T05:17:49;1.70;99.90
15013;DHT22;7603;49.432;11.418;2024-02-14T05:20:16;1.80;99.90
15013;DHT22;7603;49.432;11.418;2024-02-14T05:22:42;1.90;99.90
15013;DHT22;7603;49.432;11.418;2024-02-14T05:25:08;2.00;99.90
15013;DHT22;7603;49.432;11.418;2024-02-14T05:27:35;2.10;99.90
15013;DHT22;7603;49.432;11.418;2024-02-14T05:30:01;2.10;99.90
15013;DHT22;7603;49.432;11.418;2024-02-14T05:32:31;2.20;99.90
15013;DHT22;7603;49.432;11.418;2024-02-14T05:34:57;2.30;99.90
15013;DHT22;7603;49.432;11.418;2024-02-14T05:37:23;2.40;99.90
15013;DHT22;7603;49.432;11.418;2024-02-14T05:39:49;2.50;99.90
15013;DHT22;7603;49.432;11.418;2024-02-14T05:42:15;2.60;99.90
15013;DHT22;7603;49.432;11.418;2024-02-14T05:44:42;2.70;99.90
15013;DHT22;7603;49.432;11.418;2024-02-14T05:47:09;2.80;99.90
15013;DHT22;7603;49.432;11.418;2024-02-14T05:49:35;2.90;99.90
15013;DHT22;7603;49.432;11.418;2024-02-14T05:52:01;3.00;99.90
15013;DHT22;7603;49.432;11.418;2024-02-14T05:54:27;3.10;99.90
15013;DHT22;7603;49.432;11.418;2024-02-14T05:56:52;3.20;99.90
15013;DHT22;7603;49.432;11.418;2024-02-14T05:59:18;3.40;99.90
15013;DHT22;7603;49.432;11.418;2024-02-14T06:01:43;3.50;99.90
15013;DHT22;7603;49.432;11.418;2024-02-14T06:04:09;3.50;99.90
15013;DHT22;7603;49.432;11.418;2024-02-14T06:06:35;3.60;99.90
15013;DHT22;7603;49.432;11.418;2024-02-14T06:09:00;3.70;99.90
15013;DHT22;7603;49.432;11.418;2024-02-14T06:11:26;3.70;99.90
15013;DHT22;7603;49.432;11.418;2024-02-14T06:13:52;3.80;99.90
15013;DHT22;7603;49.432;11.418;2024-02-14T06:16:17;3.80;99.90
15013;DHT22;7603;49.432;11.418;2024-02-14T06:18:43;3.90;99.90
15013;DHT22;7603;49.432;11.418;2024-02-14T06:21:09;3.90;99.90
15013;DHT22;7603;49.432;11.418;2024-02-14T06:23:35;4.00;99.90
15013;DHT22;7603;49.432;11.418;2024-02-14T06:26:02;4.00;99.90
15013;DHT22;7603;49.432;11.418;2024-02-14T06:28:29;4.00;99.90
15013;DHT22;7603;49.432;11.418;2024-02-14T06:30:55;4.10;99.90
15013;DHT22;7603;49.432;11.418;2024-02-14T06:33:21;4.10;99.90
15013;DHT22;7603;49.432;11.418;2024-02-14T06:35:46;4.10;99.90
15013;DHT22;7603;49.432;11.418;2024-02-14T06:38:12;4.20;99.90
15013;DHT22;7603;49.432;11.418;2024-02-14T06:40:37;4.20;99.90
15013;DHT22;7603;49.432;11.418;2024-02-14T06:43:04;4.20;99.90
15013;DHT22;7603;49.432;11.418;2024-02-14T06:45:32;4.30;99.90
15013;DHT22;7603;49.432;11.418;2024-02-14T06:47:58;4.30;99.90
15013;DHT22;7603;49.432;11.418;2024-02-14T06:50:23;4.30;99.90
15013;DHT22;7603;49.432;11.418;2024-02-14T06:52:53;4.40;99.90
15013;DHT22;7603;49.432;11.418;2024-02-14T06:55:18;4.40;99.90
15013;DHT22;7603;49.432;11.418;2024-02-14T06:57:44;4.40;99.90
15013;DHT22;7603;49.432;11.418;2024-02-14T07:00:10;4.50;99.90
15013;DHT22;7603;49.432;11.418;2024-02-14T07:02:36;4.50;99.90
15013;DHT22;7603;49.432;11.418;2024-02-14T07:05:02;4.60;99.90
15013;DHT22;7603;49.432;11.418;2024-02-14T07:07:28;4.70;99.90
15013;DHT22;7603;49.432;11.418;2024-02-14T07:09:53;4.70;99.90
15013;DHT22;7603;49.432;11.418;2024-02-14T07:12:19;4.80;99.90
15013;DHT22;7603;49.432;11.418;2024-02-14T07:14:46;4.90;99.90
15013;DHT22;7603;49.432;11.418;2024-02-14T07:17:12;4.90;99.90
15013;DHT22;7603;49.432;11.418;2024-02-14T07:19:38;4.90;99.90
15013;DHT22;7603;49.432;11.418;2024-02-14T07:22:04;5.00;99.90
15013;DHT22;7603;49.432;11.418;2024-02-14T07:24:30;5.00;99.90
15013;DHT22;7603;49.432;11.418;2024-02-14T07:26:55;5.00;99.90
15013;DHT22;7603;49.432;11.418;2024-02-14T07:29:22;5.10;99.90
15013;DHT22;7603;49.432;11.418;2024-02-14T07:31:48;5.20;99.90
15013;DHT22;7603;49.432;11.418;2024-02-14T07:34:13;5.30;99.90
15013;DHT22;7603;49.432;11.418;2024-02-14T07:36:39;5.40;99.90
15013;DHT22;7603;49.432;11.418;2024-02-14T07:39:06;5.50;99.90
15013;DHT22;7603;49.432;11.418;2024-02-14T07:41:32;5.60;99.90
15013;DHT22;7603;49.432;11.418;2024-02-14T07:43:58;5.70;99.90
15013;DHT22;7603;49.432;11.418;2024-02-14T07:46:23;5.90;99.90
15013;DHT22;7603;49.432;11.418;2024-02-14T07:48:51;6.00;99.90
15013;DHT22;7603;49.432;11.418;2024-02-14T07:51:19;6.20;99.90
15013;DHT22;7603;49.432;11.418;2024-02-14T07:53:45;6.40;99.90
15013;DHT22;7603;49.432;11.418;2024-02-14T07:56:10;6.50;99.90
15013;DHT22;7603;49.432;11.418;2024-02-14T07:58:36;6.50;99.90
15013;DHT22;7603;49.432;11.418;2024-02-14T08:01:01;6.50;99.90
15013;DHT22;7603;49.432;11.418;2024-02-14T08:03:29;6.50;99.90
15013;DHT22;7603;49.432;11.418;2024-02-14T08:05:55;6.50;99.90
15013;DHT22;7603;49.432;11.418;2024-02-14T08:08:20;6.50;99.90
15013;DHT22;7603;49.432;11.418;2024-02-14T08:10:46;6.60;99.90
15013;DHT22;7603;49.432;11.418;2024-02-14T08:13:12;6.70;99.90
15013;DHT22;7603;49.432;11.418;2024-02-14T08:15:41;6.70;99.90
15013;DHT22;7603;49.432;11.418;2024-02-14T08:18:07;6.90;99.90
15013;DHT22;7603;49.432;11.418;2024-02-14T08:20:32;7.10;99.90
15013;DHT22;7603;49.432;11.418;2024-02-14T08:22:59;7.30;99.90
15013;DHT22;7603;49.432;11.418;2024-02-14T08:25:24;7.50;99.90
15013;DHT22;7603;49.432;11.418;2024-02-14T08:27:50;7.60;99.90
15013;DHT22;7603;49.432;11.418;2024-02-14T08:30:16;7.60;99.90
15013;DHT22;7603;49.432;11.418;2024-02-14T08:32:42;7.60;99.90
15013;DHT22;7603;49.432;11.418;2024-02-14T08:35:08;7.40;99.90
15013;DHT22;7603;49.432;11.418;2024-02-14T08:37:35;7.50;99.90
15013;DHT22;7603;49.432;11.418;2024-02-14T08:40:03;7.60;99.90
15013;DHT22;7603;49.432;11.418;2024-02-14T08:42:32;7.70;99.90
15013;DHT22;7603;49.432;11.418;2024-02-14T08:44:58;7.70;99.90
15013;DHT22;7603;49.432;11.418;2024-02-14T08:47:24;7.60;99.90
15013;DHT22;7603;49.432;11.418;2024-02-14T08:49:49;7.60;99.90
15013;DHT22;7603;49.432;11.418;2024-02-14T08:52:15;7.50;99.90
15013;DHT22;7603;49.432;11.418;2024-02-14T08:54:40;7.50;99.90
15013;DHT22;7603;49.432;11.418;2024-02-14T08:57:06;7.50;99.90
15013;DHT22;7603;49.432;11.418;2024-02-14T08:59:32;7.50;99.90
15013;DHT22;7603;49.432;11.418;2024-02-14T09:01:58;7.50;99.90
15013;DHT22;7603;49.432;11.418;2024-02-14T09:04:23;7.60;99.90
15013;DHT22;7603;49.432;11.418;2024-02-14T09:06:49;7.70;99.90
15013;DHT22;7603;49.432;11.418;2024-02-14T09:09:15;7.70;99.90
15013;DHT22;7603;49.432;11.418;2024-02-14T09:11:41;7.80;99.90
15013;DHT22;7603;49.432;11.418;2024-02-14T09:14:07;7.80;99.90
15013;DHT22;7603;49.432;11.418;2024-02-14T09:16:33;7.80;99.90
15013;DHT22;7603;49.432;11.418;2024-02-14T09:18:59;7.80;99.90
15013;DHT22;7603;49.432;11.418;2024-02-14T09:21:26;7.80;99.90
15013;DHT22;7603;49.432;11.418;2024-02-14T09:23:53;7.60;99.90
15013;DHT22;7603;49.432;11.418;2024-02-14T09:26:18;7.60;99.90
15013;DHT22;7603;49.432;11.418;2024-02-14T09:28:44;7.70;99.90
15013;DHT22;7603;49.432;11.418;2024-02-14T09:31:10;7.90;99.90
15013;DHT22;7603;49.432;11.418;2024-02-14T09:33:38;8.20;99.90
15013;DHT22;7603;49.432;11.418;2024-02-14T09:36:04;8.40;99.90
15013;DHT22;7603;49.432;11.418;2024-02-14T09:38:32;8.50;99.90
15013;DHT22;7603;49.432;11.418;2024-02-14T09:41:15;8.40;99.90
15013;DHT22;7603;49.432;11.418;2024-02-14T09:43:44;8.30;99.90
15013;DHT22;7603;49.432;11.418;2024-02-14T09:46:14;8.20;99.90
15013;DHT22;7603;49.432;11.418;2024-02-14T09:48:49;8.20;99.90
15013;DHT22;7603;49.432;11.418;2024-02-14T09:51:16;8.30;99.90
15013;DHT22;7603;49.432;11.418;2024-02-14T09:53:41;8.40;99.90
15013;DHT22;7603;49.432;11.418;2024-02-14T09:56:11;8.70;99.90
15013;DHT22;7603;49.432;11.418;2024-02-14T09:58:40;9.00;99.90
15013;DHT22;7603;49.432;11.418;2024-02-14T10:01:06;9.30;99.90
15013;DHT22;7603;49.432;11.418;2024-02-14T10:03:32;9.70;99.90
15013;DHT22;7603;49.432;11.418;2024-02-14T10:05:59;10.20;99.90
15013;DHT22;7603;49.432;11.418;2024-02-14T10:08:25;10.70;99.90
15013;DHT22;7603;49.432;11.418;2024-02-14T10:10:51;11.10;99.90
15013;DHT22;7603;49.432;11.418;2024-02-14T10:13:18;11.00;99.90
15013;DHT22;7603;49.432;11.418;2024-02-14T10:15:43;10.80;99.90
15013;DHT22;7603;49.432;11.418;2024-02-14T10:18:09;10.70;99.90
15013;DHT22;7603;49.432;11.418;2024-02-14T10:20:35;10.60;99.90
15013;DHT22;7603;49.432;11.418;2024-02-14T10:23:07;10.50;99.90
15013;DHT22;7603;49.432;11.418;2024-02-14T10:25:37;10.40;99.90
15013;DHT22;7603;49.432;11.418;2024-02-14T10:28:04;10.20;99.90
15013;DHT22;7603;49.432;11.418;2024-02-14T10:30:35;10.10;99.90
15013;DHT22;7603;49.432;11.418;2024-02-14T10:33:02;10.00;99.90
15013;DHT22;7603;49.432;11.418;2024-02-14T10:35:30;9.80;99.90
15013;DHT22;7603;49.432;11.418;2024-02-14T10:37:58;9.70;99.90
15013;DHT22;7603;49.432;11.418;2024-02-14T10:40:28;9.70;99.90
15013;DHT22;7603;49.432;11.418;2024-02-14T10:42:55;9.70;99.90
15013;DHT22;7603;49.432;11.418;2024-02-14T10:45:20;9.80;99.90
15013;DHT22;7603;49.432;11.418;2024-02-14T10:47:47;10.10;99.90
15013;DHT22;7603;49.432;11.418;2024-02-14T10:50:16;10.40;99.90
15013;DHT22;7603;49.432;11.418;2024-02-14T10:52:44;11.00;99.90
15013;DHT22;7603;49.432;11.418;2024-02-14T10:55:12;11.60;99.90
15013;DHT22;7603;49.432;11.418;2024-02-14T10:57:38;12.20;99.90
15013;DHT22;7603;49.432;11.418;2024-02-14T11:00:09;12.50;99.90
15013;DHT22;7603;49.432;11.418;2024-02-14T11:02:36;12.90;99.90
15013;DHT22;7603;49.432;11.418;2024-02-14T11:05:03;13.60;99.90
15013;DHT22;7603;49.432;11.418;2024-02-14T11:07:29;14.50;99.90
15013;DHT22;7603;49.432;11.418;2024-02-14T11:10:06;15.20;99.90
15013;DHT22;7603;49.432;11.418;2024-02-14T11:12:36;15.50;99.90
15013;DHT22;7603;49.432;11.418;2024-02-14T11:17:44;14.80;99.90
15013;DHT22;7603;49.432;11.418;2024-02-14T11:20:16;14.30;99.90
15013;DHT22;7603;49.432;11.418;2024-02-14T11:23:04;13.70;99.90
15013;DHT22;7603;49.432;11.418;2024-02-14T11:25:33;13.30;99.90
15013;DHT22;7603;49.432;11.418;2024-02-14T11:28:14;13.10;99.90
15013;DHT22;7603;49.432;11.418;2024-02-14T11:30:41;12.90;99.90
15013;DHT22;7603;49.432;11.418;2024-02-14T11:33:24;12.60;99.90
15013;DHT22;7603;49.432;11.418;2024-02-14T11:35:51;12.40;99.90
15013;DHT22;7603;49.432;11.418;2024-02-14T11:38:24;12.20;99.90
15013;DHT22;7603;49.432;11.418;2024-02-14T11:40:54;12.10;99.90
15013;DHT22;7603;49.432;11.418;2024-02-14T11:43:22;11.90;99.90
15013;DHT22;7603;49.432;11.418;2024-02-14T11:45:48;11.70;99.90
15013;DHT22;7603;49.432;11.418;2024-02-14T11:48:18;11.60;99.90
15013;DHT22;7603;49.432;11.418;2024-02-14T11:50:50;11.50;99.90
15013;DHT22;7603;49.432;11.418;2024-02-14T11:53:17;11.40;99.90
15013;DHT22;7603;49.432;11.418;2024-02-14T11:55:45;11.40;99.90
15013;DHT22;7603;49.432;11.418;2024-02-14T11:58:14;11.70;99.90
15013;DHT22;7603;49.432;11.418;2024-02-14T12:00:43;12.20;99.90
15013;DHT22;7603;49.432;11.418;2024-02-14T12:03:23;13.00;99.90
15013;DHT22;7603;49.432;11.418;2024-02-14T12:05:51;14.00;99.90
15013;DHT22;7603;49.432;11.418;2024-02-14T12:08:17;14.90;99.90
15013;DHT22;7603;49.432;11.418;2024-02-14T12:10:46;15.50;99.90
15013;DHT22;7603;49.432;11.418;2024-02-14T12:13:17;15.60;99.90
15013;DHT22;7603;49.432;11.418;2024-02-14T12:15:47;15.60;99.90
15013;DHT22;7603;49.432;11.418;2024-02-14T12:18:13;15.40;99.90
15013;DHT22;7603;49.432;11.418;2024-02-14T12:20:41;15.40;99.90
15013;DHT22;7603;49.432;11.418;2024-02-14T12:23:07;15.50;99.90
15013;DHT22;7603;49.432;11.418;2024-02-14T12:25:33;15.30;99.90
15013;DHT22;7603;49.432;11.418;2024-02-14T12:27:59;15.10;99.90
15013;DHT22;7603;49.432;11.418;2024-02-14T12:30:48;15.00;99.90
15013;DHT22;7603;49.432;11.418;2024-02-14T12:33:16;14.90;99.90
15013;DHT22;7603;49.432;11.418;2024-02-14T12:35:44;14.90;99.90
15013;DHT22;7603;49.432;11.418;2024-02-14T12:38:10;15.00;99.90
15013;DHT22;7603;49.432;11.418;2024-02-14T12:40:36;15.20;99.90
15013;DHT22;7603;49.432;11.418;2024-02-14T12:43:02;15.40;99.90
15013;DHT22;7603;49.432;11.418;2024-02-14T12:45:28;15.60;99.90
15013;DHT22;7603;49.432;11.418;2024-02-14T12:47:54;15.60;99.90
15013;DHT22;7603;49.432;11.418;2024-02-14T12:50:20;15.60;99.90
15013;DHT22;7603;49.432;11.418;2024-02-14T12:52:46;15.50;99.90
15013;DHT22;7603;49.432;11.418;2024-02-14T12:55:12;15.30;99.90
15013;DHT22;7603;49.432;11.418;2024-02-14T12:57:38;15.10;99.90
15013;DHT22;7603;49.432;11.418;2024-02-14T13:00:05;14.70;99.90
15013;DHT22;7603;49.432;11.418;2024-02-14T13:02:34;14.20;99.90
15013;DHT22;7603;49.432;11.418;2024-02-14T13:05:00;13.90;99.90
15013;DHT22;7603;49.432;11.418;2024-02-14T13:07:27;13.80;99.90
15013;DHT22;7603;49.432;11.418;2024-02-14T13:09:53;13.70;99.90
15013;DHT22;7603;49.432;11.418;2024-02-14T13:12:20;13.60;99.90
15013;DHT22;7603;49.432;11.418;2024-02-14T13:14:46;13.50;99.90
15013;DHT22;7603;49.432;11.418;2024-02-14T13:17:12;13.60;99.90
15013;DHT22;7603;49.432;11.418;2024-02-14T13:19:39;13.60;99.90
15013;DHT22;7603;49.432;11.418;2024-02-14T13:22:05;13.40;99.90
15013;DHT22;7603;49.432;11.418;2024-02-14T13:24:31;13.10;99.90
15013;DHT22;7603;49.432;11.418;2024-02-14T13:26:57;12.90;99.90
15013;DHT22;7603;49.432;11.418;2024-02-14T13:29:25;12.50;99.90
15013;DHT22;7603;49.432;11.418;2024-02-14T13:31:51;12.30;99.90
15013;DHT22;7603;49.432;11.418;2024-02-14T13:34:17;12.20;99.90
15013;DHT22;7603;49.432;11.418;2024-02-14T13:36:46;11.80;99.90
15013;DHT22;7603;49.432;11.418;2024-02-14T13:39:12;11.60;99.90
15013;DHT22;7603;49.432;11.418;2024-02-14T13:41:39;11.50;99.90
15013;DHT22;7603;49.432;11.418;2024-02-14T13:44:07;11.60;99.90
15013;DHT22;7603;49.432;11.418;2024-02-14T13:46:34;12.10;99.90
15013;DHT22;7603;49.432;11.418;2024-02-14T13:49:00;12.70;99.90
15013;DHT22;7603;49.432;11.418;2024-02-14T13:51:26;13.30;99.90
15013;DHT22;7603;49.432;11.418;2024-02-14T13:53:53;13.60;99.90
15013;DHT22;7603;49.432;11.418;2024-02-14T13:56:18;13.70;99.90
15013;DHT22;7603;49.432;11.418;2024-02-14T13:58:47;13.90;99.90
15013;DHT22;7603;49.432;11.418;2024-02-14T14:01:12;13.90;99.90
15013;DHT22;7603;49.432;11.418;2024-02-14T14:03:38;14.10;99.90
15013;DHT22;7603;49.432;11.418;2024-02-14T14:06:06;14.40;99.90
15013;DHT22;7603;49.432;11.418;2024-02-14T14:08:34;14.50;99.90
15013;DHT22;7603;49.432;11.418;2024-02-14T14:11:02;14.40;99.90
15013;DHT22;7603;49.432;11.418;2024-02-14T14:13:29;14.10;99.90
15013;DHT22;7603;49.432;11.418;2024-02-14T14:15:57;14.00;99.90
15013;DHT22;7603;49.432;11.418;2024-02-14T14:18:22;13.80;99.90
15013;DHT22;7603;49.432;11.418;2024-02-14T14:20:49;13.70;99.90
15013;DHT22;7603;49.432;11.418;2024-02-14T14:23:15;13.50;99.90
15013;DHT22;7603;49.432;11.418;2024-02-14T14:25:41;13.20;99.90
15013;DHT22;7603;49.432;11.418;2024-02-14T14:28:07;12.70;99.90
15013;DHT22;7603;49.432;11.418;2024-02-14T14:30:35;12.30;99.90
15013;DHT22;7603;49.432;11.418;2024-02-14T14:33:01;12.00;99.90
15013;DHT22;7603;49.432;11.418;2024-02-14T14:35:27;11.90;99.90
15013;DHT22;7603;49.432;11.418;2024-02-14T14:37:54;11.90;99.90
15013;DHT22;7603;49.432;11.418;2024-02-14T14:40:20;11.80;99.90
15013;DHT22;7603;49.432;11.418;2024-02-14T14:42:47;11.80;99.90
15013;DHT22;7603;49.432;11.418;2024-02-14T14:45:12;12.00;99.90
15013;DHT22;7603;49.432;11.418;2024-02-14T14:47:38;12.20;99.90
15013;DHT22;7603;49.432;11.418;2024-02-14T14:50:05;12.30;99.90
15013;DHT22;7603;49.432;11.418;2024-02-14T14:52:32;12.40;99.90
15013;DHT22;7603;49.432;11.418;2024-02-14T14:54:58;12.30;99.90
15013;DHT22;7603;49.432;11.418;2024-02-14T14:57:24;12.20;99.90
15013;DHT22;7603;49.432;11.418;2024-02-14T14:59:50;12.10;99.90
15013;DHT22;7603;49.432;11.418;2024-02-14T15:02:16;12.00;99.90
15013;DHT22;7603;49.432;11.418;2024-02-14T15:04:43;11.90;99.90
15013;DHT22;7603;49.432;11.418;2024-02-14T15:07:12;11.80;99.90
15013;DHT22;7603;49.432;11.418;2024-02-14T15:09:37;11.80;99.90
15013;DHT22;7603;49.432;11.418;2024-02-14T15:12:04;11.80;99.90
15013;DHT22;7603;49.432;11.418;2024-02-14T15:14:33;11.80;99.90
15013;DHT22;7603;49.432;11.418;2024-02-14T15:16:59;11.80;99.90
15013;DHT22;7603;49.432;11.418;2024-02-14T15:19:26;11.80;99.90
15013;DHT22;7603;49.432;11.418;2024-02-14T15:21:52;11.80;99.90
15013;DHT22;7603;49.432;11.418;2024-02-14T15:24:18;11.80;99.90
15013;DHT22;7603;49.432;11.418;2024-02-14T15:26:46;11.70;99.90
15013;DHT22;7603;49.432;11.418;2024-02-14T15:29:25;11.50;99.90
15013;DHT22;7603;49.432;11.418;2024-02-14T15:32:23;11.40;99.90
15013;DHT22;7603;49.432;11.418;2024-02-14T15:35:07;11.30;99.90
15013;DHT22;7603;49.432;11.418;2024-02-14T15:40:18;11.20;99.90
15013;DHT22;7603;49.432;11.418;2024-02-14T15:42:45;11.20;99.90